Time;durP1;ratioP1;P1;durP2;ratioP2;P2;SDS_P1;SDS_P2;PMS_P1;PMS_P2;Temp;Humidity;BMP_temperature;BMP_pressure;BME280_temperature;BME280_humidity;BME280_pressure;Samples;Min_cycle;Max_cycle;Signal;HPM_P1;HPM_P2
2022/06/25 00:01:22;;;;;;;8.27;5.47;;;;;;;;;;760559;184;919733;-67
2022/06/25 00:03:48;;;;;;;7.97;5.77;;;;;;;;;;757879;181;925270;-67
2022/06/25 00:06:14;;;;;;;7.33;5.13;;;;;;;;;;755161;185;919157;-67
2022/06/25 00:08:39;;;;;;;6.77;5.30;;;;;;;;;;728598;189;919409;-66
2022/06/25 00:11:05;;;;;;;5.80;5.20;;;;;;;;;;736691;188;918874;-68
2022/06/25 00:13:31;;;;;;;4.80;4.27;;;;;;;;;;741592;186;919666;-67
2022/06/25 00:15:57;;;;;;;7.22;4.87;;;;;;;;;;741845;188;918910;-67
2022/06/25 00:18:23;;;;;;;5.13;4.50;;;;;;;;;;746255;188;928667;-67
2022/06/25 00:20:49;;;;;;;4.80;3.90;;;;;;;;;;740562;189;918744;-67
2022/06/25 00:23:14;;;;;;;5.70;4.83;;;;;;;;;;741325;188;918742;-67
2022/06/25 00:25:40;;;;;;;6.23;4.10;;;;;;;;;;747146;188;917715;-68
2022/06/25 00:28:06;;;;;;;6.50;5.20;;;;;;;;;;741591;188;918589;-67
2022/06/25 00:30:32;;;;;;;5.80;4.27;;;;;;;;;;744291;186;945779;-67
2022/06/25 00:32:58;;;;;;;5.57;3.87;;;;;;;;;;744883;187;919213;-67
2022/06/25 00:35:24;;;;;;;9.70;4.77;;;;;;;;;;747866;186;919176;-68
2022/06/25 00:37:50;;;;;;;7.90;4.73;;;;;;;;;;743729;188;918834;-69
2022/06/25 00:40:16;;;;;;;8.03;5.23;;;;;;;;;;741419;188;920186;-68
2022/06/25 00:42:42;;;;;;;6.73;5.00;;;;;;;;;;749218;188;916220;-69
2022/06/25 00:45:08;;;;;;;8.00;4.60;;;;;;;;;;744664;188;918706;-69
2022/06/25 00:47:33;;;;;;;6.23;5.57;;;;;;;;;;743813;188;927470;-68
2022/06/25 00:49:59;;;;;;;12.53;5.20;;;;;;;;;;746580;189;919550;-68
2022/06/25 00:52:25;;;;;;;8.67;5.47;;;;;;;;;;743484;188;919781;-68
2022/06/25 00:54:51;;;;;;;7.17;5.10;;;;;;;;;;746577;186;923158;-70
2022/06/25 00:57:18;;;;;;;11.90;6.40;;;;;;;;;;773439;183;624140;-68
2022/06/25 00:59:44;;;;;;;8.60;5.60;;;;;;;;;;776251;181;894080;-68
2022/06/25 01:02:09;;;;;;;7.00;5.37;;;;;;;;;;776415;180;625936;-69
2022/06/25 01:04:36;;;;;;;6.60;4.87;;;;;;;;;;770927;181;636479;-68
2022/06/25 01:07:02;;;;;;;7.60;5.90;;;;;;;;;;748480;189;632584;-68
2022/06/25 01:09:28;;;;;;;6.50;4.73;;;;;;;;;;768136;181;918071;-67
2022/06/25 01:11:54;;;;;;;9.37;5.43;;;;;;;;;;763078;183;918680;-67
2022/06/25 01:14:20;;;;;;;7.68;5.30;;;;;;;;;;765602;181;917540;-67
2022/06/25 01:16:46;;;;;;;13.73;5.33;;;;;;;;;;757532;183;921687;-67
2022/06/25 01:19:11;;;;;;;12.33;6.20;;;;;;;;;;757516;181;918751;-67
2022/06/25 01:21:37;;;;;;;8.93;5.40;;;;;;;;;;762427;182;921415;-67
2022/06/25 01:24:03;;;;;;;6.23;5.50;;;;;;;;;;758219;182;920498;-67
2022/06/25 01:26:29;;;;;;;11.70;6.23;;;;;;;;;;754123;181;919602;-68
2022/06/25 01:28:55;;;;;;;6.53;5.83;;;;;;;;;;759159;182;916764;-67
2022/06/25 01:31:21;;;;;;;7.90;6.20;;;;;;;;;;768347;181;916883;-67
2022/06/25 01:33:47;;;;;;;10.07;5.83;;;;;;;;;;763860;181;915909;-68
2022/06/25 01:36:13;;;;;;;7.77;5.50;;;;;;;;;;762620;181;917826;-67
2022/06/25 01:38:38;;;;;;;6.13;5.53;;;;;;;;;;767410;181;912499;-67
2022/06/25 01:41:06;;;;;;;6.80;6.10;;;;;;;;;;763873;181;920824;-69
2022/06/25 01:43:32;;;;;;;7.07;5.77;;;;;;;;;;763684;181;917222;-67
2022/06/25 01:45:57;;;;;;;9.87;6.10;;;;;;;;;;772166;179;922516;-67
2022/06/25 01:48:23;;;;;;;6.57;5.50;;;;;;;;;;762120;180;915312;-66
2022/06/25 01:50:49;;;;;;;6.40;5.80;;;;;;;;;;759155;181;917815;-66
2022/06/25 01:53:15;;;;;;;10.63;5.50;;;;;;;;;;758862;182;917181;-66
2022/06/25 01:55:41;;;;;;;15.40;5.90;;;;;;;;;;764644;181;917923;-67
2022/06/25 01:58:07;;;;;;;7.50;5.37;;;;;;;;;;759660;181;950627;-66
2022/06/25 02:00:33;;;;;;;6.53;5.70;;;;;;;;;;764321;180;906570;-67
2022/06/25 02:02:59;;;;;;;6.90;6.20;;;;;;;;;;767584;181;917300;-66
2022/06/25 02:07:56;;;;;;;13.33;6.10;;;;;;;;;;764055;180;916008;-68
2022/06/25 02:10:22;;;;;;;8.53;6.00;;;;;;;;;;765313;180;915534;-67
2022/06/25 02:12:49;;;;;;;8.50;5.20;;;;;;;;;;770955;181;919013;-67
2022/06/25 02:15:14;;;;;;;7.27;6.00;;;;;;;;;;767333;180;916285;-67
2022/06/25 02:17:40;;;;;;;7.03;6.00;;;;;;;;;;764039;180;931287;-66
2022/06/25 02:20:06;;;;;;;7.87;5.80;;;;;;;;;;769564;181;934704;-68
2022/06/25 02:22:32;;;;;;;6.97;6.00;;;;;;;;;;763142;181;915339;-67
2022/06/25 02:24:58;;;;;;;9.63;6.30;;;;;;;;;;734172;186;919664;-67
2022/06/25 02:27:24;;;;;;;7.20;6.50;;;;;;;;;;767150;181;914711;-67
2022/06/25 02:29:49;;;;;;;7.20;5.63;;;;;;;;;;765216;181;918763;-66
2022/06/25 02:32:15;;;;;;;12.60;5.70;;;;;;;;;;769074;180;914334;-66
2022/06/25 02:34:41;;;;;;;8.60;6.00;;;;;;;;;;767842;181;1738427;-66
2022/06/25 02:37:07;;;;;;;7.93;5.87;;;;;;;;;;774127;181;919434;-66
2022/06/25 02:39:33;;;;;;;7.40;6.10;;;;;;;;;;772491;180;918542;-66
2022/06/25 02:41:59;;;;;;;9.57;7.27;;;;;;;;;;768133;181;918764;-66
2022/06/25 02:44:25;;;;;;;8.63;6.53;;;;;;;;;;777136;180;918445;-66
2022/06/25 02:46:50;;;;;;;8.60;5.90;;;;;;;;;;770790;181;919204;-66
2022/06/25 02:49:16;;;;;;;8.23;5.00;;;;;;;;;;767903;181;925841;-66
2022/06/25 02:51:42;;;;;;;6.90;5.23;;;;;;;;;;763866;181;920951;-66
2022/06/25 02:54:08;;;;;;;6.20;5.00;;;;;;;;;;761931;182;918772;-66
2022/06/25 02:59:06;;;;;;;5.57;4.90;;;;;;;;;;759866;181;919039;-66
2022/06/25 03:01:31;;;;;;;6.83;5.67;;;;;;;;;;760306;181;919040;-67
2022/06/25 03:03:57;;;;;;;8.77;5.97;;;;;;;;;;757644;181;918430;-67
2022/06/25 03:06:23;;;;;;;8.70;5.87;;;;;;;;;;754481;181;925934;-66
2022/06/25 03:08:49;;;;;;;7.50;5.90;;;;;;;;;;736332;190;905229;-66
2022/06/25 03:11:15;;;;;;;9.53;6.13;;;;;;;;;;774275;180;918978;-66
2022/06/25 03:13:41;;;;;;;7.27;5.63;;;;;;;;;;770856;181;919268;-66
2022/06/25 03:16:07;;;;;;;8.40;5.33;;;;;;;;;;746911;187;945180;-66
2022/06/25 03:18:33;;;;;;;10.70;5.10;;;;;;;;;;741315;187;920222;-66
2022/06/25 03:20:59;;;;;;;6.70;5.37;;;;;;;;;;743967;185;918898;-66
2022/06/25 03:23:25;;;;;;;7.90;6.17;;;;;;;;;;747642;185;918699;-66
2022/06/25 03:25:51;;;;;;;7.70;6.47;;;;;;;;;;749184;185;909039;-67
2022/06/25 03:28:17;;;;;;;9.50;5.70;;;;;;;;;;743676;188;918420;-66
2022/06/25 03:30:43;;;;;;;7.80;5.60;;;;;;;;;;741963;188;926992;-67
2022/06/25 03:33:08;;;;;;;8.20;5.90;;;;;;;;;;753896;186;918562;-66
2022/06/25 03:35:34;;;;;;;9.40;5.93;;;;;;;;;;740449;188;919015;-67
2022/06/25 03:38:00;;;;;;;11.53;6.37;;;;;;;;;;768071;182;919478;-67
2022/06/25 03:40:26;;;;;;;5.90;4.80;;;;;;;;;;770644;182;918752;-66
2022/06/25 03:42:52;;;;;;;9.03;5.17;;;;;;;;;;760845;180;918676;-66
2022/06/25 03:45:18;;;;;;;10.80;7.80;;;;;;;;;;761066;181;920908;-67
2022/06/25 03:47:49;;;;;;;9.20;5.90;;;;;;;;;;763216;182;918912;-66
2022/06/25 03:50:10;;;;;;;8.83;5.37;;;;;;;;;;765408;182;914420;-67
2022/06/25 03:52:35;;;;;;;7.13;5.67;;;;;;;;;;754296;184;920310;-67
2022/06/25 03:55:01;;;;;;;6.93;6.00;;;;;;;;;;757470;181;919441;-68
2022/06/25 03:57:27;;;;;;;9.00;5.40;;;;;;;;;;759638;184;1023410;-66
2022/06/25 03:59:53;;;;;;;7.37;5.30;;;;;;;;;;759973;183;915625;-67
2022/06/25 04:02:19;;;;;;;7.87;5.90;;;;;;;;;;760758;181;915408;-67
2022/06/25 04:04:45;;;;;;;8.80;5.30;;;;;;;;;;769568;180;921446;-66
2022/06/25 04:07:11;;;;;;;6.63;5.37;;;;;;;;;;764055;181;915516;-66
2022/06/25 04:09:37;;;;;;;5.73;4.50;;;;;;;;;;763336;181;914444;-66
2022/06/25 04:12:03;;;;;;;11.10;5.37;;;;;;;;;;763572;181;916103;-65
2022/06/25 04:14:28;;;;;;;10.63;5.00;;;;;;;;;;763465;180;919737;-66
2022/06/25 04:16:55;;;;;;;6.10;5.37;;;;;;;;;;774529;180;1166536;-67
2022/06/25 04:19:20;;;;;;;8.67;5.33;;;;;;;;;;773950;180;919204;-67
2022/06/25 04:21:49;;;;;;;11.20;5.60;;;;;;;;;;780480;180;919132;-67
2022/06/25 04:24:13;;;;;;;5.60;4.70;;;;;;;;;;771974;181;919369;-67
2022/06/25 04:26:38;;;;;;;6.60;5.67;;;;;;;;;;734958;186;919495;-67
2022/06/25 04:29:04;;;;;;;8.60;5.87;;;;;;;;;;739955;188;918915;-67
2022/06/25 04:31:30;;;;;;;10.07;5.40;;;;;;;;;;748734;185;918767;-67
2022/06/25 04:33:56;;;;;;;6.72;5.50;;;;;;;;;;736922;186;918674;-67
2022/06/25 04:36:22;;;;;;;10.20;5.27;;;;;;;;;;771512;180;919465;-65
2022/06/25 04:38:48;;;;;;;8.27;5.40;;;;;;;;;;765158;181;919770;-68
2022/06/25 04:41:14;;;;;;;8.87;5.20;;;;;;;;;;763560;181;919417;-67
2022/06/25 04:43:40;;;;;;;6.40;5.30;;;;;;;;;;766593;180;918670;-69
2022/06/25 04:46:06;;;;;;;6.20;5.60;;;;;;;;;;766088;181;919592;-67
2022/06/25 04:48:32;;;;;;;6.30;5.70;;;;;;;;;;764880;181;918679;-67
2022/06/25 04:50:57;;;;;;;6.43;5.82;;;;;;;;;;762262;181;920055;-68
2022/06/25 04:53:23;;;;;;;5.30;4.80;;;;;;;;;;771001;181;919350;-68
2022/06/25 04:55:49;;;;;;;6.10;5.33;;;;;;;;;;766191;181;919048;-67
2022/06/25 04:58:15;;;;;;;12.13;5.33;;;;;;;;;;765252;181;1021581;-67
2022/06/25 05:00:41;;;;;;;8.83;5.23;;;;;;;;;;770432;181;919240;-67
2022/06/25 05:03:07;;;;;;;8.30;5.57;;;;;;;;;;763221;181;919299;-67
2022/06/25 05:05:33;;;;;;;9.00;5.33;;;;;;;;;;763584;181;945437;-67
2022/06/25 05:07:59;;;;;;;7.10;6.13;;;;;;;;;;766707;180;919062;-67
2022/06/25 05:10:25;;;;;;;10.23;5.20;;;;;;;;;;766734;180;918740;-67
2022/06/25 05:15:22;;;;;;;9.73;5.90;;;;;;;;;;766805;180;919532;-67
2022/06/25 05:17:48;;;;;;;8.80;6.33;;;;;;;;;;767755;180;918698;-67
2022/06/25 05:20:14;;;;;;;7.20;5.43;;;;;;;;;;734746;185;919016;-68
2022/06/25 05:22:40;;;;;;;7.83;4.63;;;;;;;;;;736787;187;918590;-67
2022/06/25 05:25:06;;;;;;;8.67;5.80;;;;;;;;;;735198;186;919254;-67
2022/06/25 05:27:32;;;;;;;10.93;5.97;;;;;;;;;;742280;185;918812;-67
2022/06/25 05:29:58;;;;;;;9.43;5.80;;;;;;;;;;744932;186;918959;-67
2022/06/25 05:32:24;;;;;;;8.10;6.00;;;;;;;;;;746891;186;981450;-67
2022/06/25 05:34:50;;;;;;;6.67;5.23;;;;;;;;;;748039;187;918042;-67
2022/06/25 05:37:16;;;;;;;6.10;4.70;;;;;;;;;;744404;187;919537;-68
2022/06/25 05:39:42;;;;;;;5.50;4.90;;;;;;;;;;744543;187;919625;-67
2022/06/25 05:42:08;;;;;;;7.60;5.70;;;;;;;;;;749190;187;917886;-66
2022/06/25 05:44:33;;;;;;;7.03;5.20;;;;;;;;;;742564;188;919149;-67
2022/06/25 05:46:59;;;;;;;6.90;4.83;;;;;;;;;;743219;187;920455;-67
2022/06/25 05:49:25;;;;;;;9.37;4.30;;;;;;;;;;744582;187;920109;-68
2022/06/25 05:51:51;;;;;;;9.90;5.33;;;;;;;;;;743467;188;918304;-66
2022/06/25 05:54:17;;;;;;;5.80;4.83;;;;;;;;;;743488;187;919799;-67
2022/06/25 05:56:43;;;;;;;5.90;4.33;;;;;;;;;;745500;186;918550;-66
2022/06/25 05:59:09;;;;;;;9.00;4.60;;;;;;;;;;770668;180;918897;-67
2022/06/25 06:01:35;;;;;;;8.10;4.80;;;;;;;;;;763276;180;915981;-67
2022/06/25 06:04:01;;;;;;;6.83;4.73;;;;;;;;;;767421;181;919192;-68
2022/06/25 06:06:27;;;;;;;5.80;4.63;;;;;;;;;;768094;181;918745;-67
2022/06/25 06:08:52;;;;;;;7.27;4.53;;;;;;;;;;767439;180;920010;-68
2022/06/25 06:11:18;;;;;;;8.90;4.90;;;;;;;;;;767443;181;918592;-68
2022/06/25 06:13:44;;;;;;;5.25;4.10;;;;;;;;;;767111;181;920420;-67
2022/06/25 06:16:10;;;;;;;6.70;4.83;;;;;;;;;;765432;181;919384;-67
2022/06/25 06:18:36;;;;;;;5.43;4.47;;;;;;;;;;763003;181;919393;-67
2022/06/25 06:21:02;;;;;;;6.03;4.70;;;;;;;;;;765079;181;918540;-68
2022/06/25 06:23:28;;;;;;;5.53;4.93;;;;;;;;;;770485;180;918942;-67
2022/06/25 06:25:54;;;;;;;6.03;5.30;;;;;;;;;;764820;181;918856;-68
2022/06/25 06:28:20;;;;;;;4.87;4.10;;;;;;;;;;767195;178;918832;-69
2022/06/25 06:30:46;;;;;;;5.27;4.40;;;;;;;;;;773393;180;918934;-67
2022/06/25 06:33:12;;;;;;;5.63;5.03;;;;;;;;;;768123;181;918847;-68
2022/06/25 06:35:37;;;;;;;6.73;4.80;;;;;;;;;;771868;180;920913;-68
2022/06/25 06:38:03;;;;;;;5.47;4.57;;;;;;;;;;770104;180;919980;-69
2022/06/25 06:40:29;;;;;;;5.57;4.17;;;;;;;;;;765321;181;920498;-68
2022/06/25 06:42:57;;;;;;;6.90;4.90;;;;;;;;;;768474;180;918615;-67
2022/06/25 06:45:23;;;;;;;10.60;4.87;;;;;;;;;;761461;181;919281;-68
2022/06/25 06:47:48;;;;;;;6.53;4.93;;;;;;;;;;777427;181;919567;-69
2022/06/25 06:50:14;;;;;;;5.93;4.37;;;;;;;;;;765370;181;919452;-70
2022/06/25 06:52:40;;;;;;;5.33;4.83;;;;;;;;;;771408;180;679815;-68
2022/06/25 06:55:06;;;;;;;7.70;4.93;;;;;;;;;;777659;181;620605;-68
2022/06/25 06:57:32;;;;;;;7.57;4.73;;;;;;;;;;774841;181;633024;-69
2022/06/25 06:59:59;;;;;;;7.07;4.90;;;;;;;;;;775825;181;622703;-69
2022/06/25 07:02:25;;;;;;;6.40;4.65;;;;;;;;;;751317;186;622926;-67
2022/06/25 07:04:52;;;;;;;8.63;5.70;;;;;;;;;;766000;180;619155;-70
2022/06/25 07:07:17;;;;;;;9.00;5.40;;;;;;;;;;767912;181;628031;-69
2022/06/25 07:09:42;;;;;;;6.43;5.53;;;;;;;;;;763777;180;919191;-68
2022/06/25 07:12:08;;;;;;;8.47;5.83;;;;;;;;;;768810;181;625331;-68
2022/06/25 07:14:34;;;;;;;7.90;5.03;;;;;;;;;;767893;180;638960;-69
2022/06/25 07:17:00;;;;;;;7.03;5.30;;;;;;;;;;773045;180;919573;-70
2022/06/25 07:19:26;;;;;;;8.77;4.90;;;;;;;;;;767981;180;919462;-68
2022/06/25 07:21:54;;;;;;;7.53;4.97;;;;;;;;;;762607;181;918212;-68
2022/06/25 07:24:18;;;;;;;7.03;5.30;;;;;;;;;;756778;184;918964;-73
2022/06/25 07:26:44;;;;;;;7.83;5.50;;;;;;;;;;766362;181;918417;-70
2022/06/25 07:29:10;;;;;;;8.47;4.80;;;;;;;;;;766379;181;919737;-70
2022/06/25 07:31:36;;;;;;;6.13;5.53;;;;;;;;;;759617;180;920096;-68
2022/06/25 07:34:01;;;;;;;11.70;5.50;;;;;;;;;;768495;180;920299;-68
2022/06/25 07:36:28;;;;;;;9.37;5.77;;;;;;;;;;773190;181;917838;-68
2022/06/25 07:38:53;;;;;;;7.20;5.50;;;;;;;;;;770874;180;942556;-69
2022/06/25 07:41:19;;;;;;;8.90;5.47;;;;;;;;;;773030;180;920627;-68
2022/06/25 07:43:46;;;;;;;6.00;5.40;;;;;;;;;;765518;180;918126;-72
2022/06/25 07:46:12;;;;;;;7.23;5.20;;;;;;;;;;742759;185;636012;-69
2022/06/25 07:48:37;;;;;;;10.93;6.10;;;;;;;;;;765167;181;629835;-70
2022/06/25 07:53:35;;;;;;;9.57;5.37;;;;;;;;;;774849;180;629470;-70
2022/06/25 07:56:01;;;;;;;7.10;4.70;;;;;;;;;;769679;181;624964;-71
2022/06/25 07:58:28;;;;;;;5.87;4.97;;;;;;;;;;736658;188;622033;-69
2022/06/25 08:00:53;;;;;;;8.67;5.13;;;;;;;;;;769428;180;636646;-69
2022/06/25 08:03:19;;;;;;;19.27;5.23;;;;;;;;;;763149;181;623337;-70
2022/06/25 08:05:44;;;;;;;7.63;5.50;;;;;;;;;;766252;180;617239;-72
2022/06/25 08:08:10;;;;;;;6.80;5.90;;;;;;;;;;765225;181;627116;-71
2022/06/25 08:10:36;;;;;;;8.83;6.00;;;;;;;;;;764282;181;712639;-71
2022/06/25 08:13:02;;;;;;;7.60;5.77;;;;;;;;;;767021;181;623012;-71
2022/06/25 08:15:28;;;;;;;7.53;5.03;;;;;;;;;;764887;180;636716;-70
2022/06/25 08:17:54;;;;;;;7.10;5.30;;;;;;;;;;770273;180;631413;-72
2022/06/25 08:20:20;;;;;;;7.40;6.60;;;;;;;;;;771577;181;632610;-70
2022/06/25 08:22:45;;;;;;;7.40;5.37;;;;;;;;;;766669;180;638969;-72
2022/06/25 08:25:11;;;;;;;14.60;5.77;;;;;;;;;;771633;181;629874;-72
2022/06/25 08:27:43;;;;;;;10.83;5.63;;;;;;;;;;772712;180;632096;-72
2022/06/25 08:30:09;;;;;;;10.47;6.37;;;;;;;;;;771248;180;872068;-71
2022/06/25 08:32:35;;;;;;;7.23;6.40;;;;;;;;;;770134;180;653449;-71
2022/06/25 08:35:01;;;;;;;8.03;5.33;;;;;;;;;;775677;181;630680;-71
2022/06/25 08:37:26;;;;;;;7.23;4.87;;;;;;;;;;764983;181;621470;-71
2022/06/25 08:39:52;;;;;;;9.33;5.87;;;;;;;;;;739745;188;630315;-72
2022/06/25 08:42:18;;;;;;;12.07;5.80;;;;;;;;;;743565;189;625462;-72
2022/06/25 08:44:44;;;;;;;9.07;5.87;;;;;;;;;;763233;181;642336;-71
2022/06/25 08:47:10;;;;;;;7.77;5.57;;;;;;;;;;764938;181;625720;-71
2022/06/25 08:49:36;;;;;;;9.97;6.13;;;;;;;;;;765491;184;619099;-73
2022/06/25 08:52:03;;;;;;;5.90;5.10;;;;;;;;;;773476;180;627303;-72
2022/06/25 08:54:27;;;;;;;8.30;5.60;;;;;;;;;;770569;180;642194;-75
2022/06/25 08:56:53;;;;;;;6.50;5.23;;;;;;;;;;767099;181;629268;-71
2022/06/25 08:59:19;;;;;;;10.03;5.20;;;;;;;;;;760023;181;632861;-72
2022/06/25 09:01:45;;;;;;;9.60;7.23;;;;;;;;;;760918;181;622021;-73
2022/06/25 09:04:11;;;;;;;6.97;5.70;;;;;;;;;;770758;181;641308;-72
2022/06/25 09:06:37;;;;;;;8.50;4.97;;;;;;;;;;765816;180;918430;-71
2022/06/25 09:09:05;;;;;;;6.10;5.43;;;;;;;;;;769310;181;624773;-72
2022/06/25 09:11:31;;;;;;;7.00;5.97;;;;;;;;;;763204;181;625210;-73
2022/06/25 09:13:59;;;;;;;7.97;5.70;;;;;;;;;;777161;181;637920;-71
2022/06/25 09:16:25;;;;;;;8.60;5.47;;;;;;;;;;766733;181;624542;-72
2022/06/25 09:18:51;;;;;;;7.17;5.90;;;;;;;;;;770864;180;630344;-73
2022/06/25 09:21:17;;;;;;;6.50;5.90;;;;;;;;;;765773;181;641247;-72
2022/06/25 09:23:48;;;;;;;6.20;4.97;;;;;;;;;;773413;180;632443;-74
2022/06/25 09:26:14;;;;;;;5.90;5.23;;;;;;;;;;763319;183;623479;-74
2022/06/25 09:28:40;;;;;;;10.63;6.30;;;;;;;;;;765980;180;623340;-72
2022/06/25 09:31:07;;;;;;;9.53;5.27;;;;;;;;;;771402;181;628915;-71
2022/06/25 09:33:32;;;;;;;5.20;4.50;;;;;;;;;;768312;181;920186;-72
2022/06/25 09:35:57;;;;;;;8.97;5.07;;;;;;;;;;774516;180;919293;-73
2022/06/25 09:38:24;;;;;;;5.60;5.10;;;;;;;;;;771564;181;622240;-72
2022/06/25 09:40:51;;;;;;;11.73;5.10;;;;;;;;;;771694;180;635105;-70
2022/06/25 09:43:20;;;;;;;9.03;5.63;;;;;;;;;;744438;185;629446;-72
2022/06/25 09:45:46;;;;;;;11.03;5.90;;;;;;;;;;736265;188;626189;-73
2022/06/25 09:48:17;;;;;;;10.33;6.40;;;;;;;;;;769336;181;614595;-71
2022/06/25 09:50:42;;;;;;;11.90;5.17;;;;;;;;;;743423;188;624766;-74
2022/06/25 09:53:08;;;;;;;6.47;5.47;;;;;;;;;;738202;188;625592;-73
2022/06/25 09:55:34;;;;;;;6.57;5.60;;;;;;;;;;770716;180;655252;-74
2022/06/25 09:58:00;;;;;;;6.53;4.90;;;;;;;;;;769889;181;618382;-74
2022/06/25 10:00:26;;;;;;;5.97;4.80;;;;;;;;;;766195;181;904681;-72
2022/06/25 10:02:51;;;;;;;6.47;5.87;;;;;;;;;;768519;179;627891;-73
2022/06/25 10:05:18;;;;;;;5.93;5.10;;;;;;;;;;770506;180;618345;-71
2022/06/25 10:10:17;;;;;;;10.67;5.80;;;;;;;;;;739351;185;619733;-74
2022/06/25 10:12:43;;;;;;;4.80;4.30;;;;;;;;;;765970;180;645648;-72
2022/06/25 10:15:08;;;;;;;6.97;4.53;;;;;;;;;;775315;180;627178;-72
2022/06/25 10:17:34;;;;;;;7.37;4.97;;;;;;;;;;768958;180;691757;-75
2022/06/25 10:20:02;;;;;;;10.50;4.90;;;;;;;;;;769163;180;631874;-71
2022/06/25 10:22:28;;;;;;;7.80;3.97;;;;;;;;;;770599;181;619293;-71
2022/06/25 10:24:52;;;;;;;6.73;4.00;;;;;;;;;;767204;180;634008;-75
2022/06/25 10:27:18;;;;;;;7.63;4.37;;;;;;;;;;764260;181;940212;-73
2022/06/25 10:29:44;;;;;;;4.90;3.87;;;;;;;;;;764222;180;919251;-70
2022/06/25 10:32:13;;;;;;;5.07;3.80;;;;;;;;;;772654;181;627116;-72
2022/06/25 10:34:39;;;;;;;6.47;4.40;;;;;;;;;;771093;180;627917;-74
2022/06/25 10:37:04;;;;;;;4.40;3.80;;;;;;;;;;770014;180;619738;-71
2022/06/25 10:39:35;;;;;;;11.40;3.50;;;;;;;;;;772216;181;620036;-74
2022/06/25 10:44:37;;;;;;;5.10;3.57;;;;;;;;;;768570;180;624607;-74
2022/06/25 10:47:09;;;;;;;6.50;3.93;;;;;;;;;;768488;181;708824;-74
2022/06/25 10:49:34;;;;;;;5.23;4.00;;;;;;;;;;770150;180;631081;-72
2022/06/25 10:52:00;;;;;;;6.07;3.83;;;;;;;;;;771915;181;630305;-72
2022/06/25 10:54:42;;;;;;;6.50;3.60;;;;;;;;;;767174;181;644404;-69
2022/06/25 10:57:08;;;;;;;7.63;3.80;;;;;;;;;;766797;181;669617;-71
2022/06/25 10:59:46;;;;;;;5.77;4.07;;;;;;;;;;771816;181;647312;-72
2022/06/25 11:02:07;;;;;;;6.40;3.90;;;;;;;;;;766027;180;617393;-70
2022/06/25 11:04:33;;;;;;;3.80;3.40;;;;;;;;;;769479;180;622542;-70
2022/06/25 11:07:05;;;;;;;6.67;3.20;;;;;;;;;;770267;180;628190;-75
2022/06/25 11:09:31;;;;;;;8.63;4.10;;;;;;;;;;768743;180;622152;-70
2022/06/25 11:11:57;;;;;;;6.57;4.47;;;;;;;;;;768595;181;689375;-77
2022/06/25 11:14:24;;;;;;;4.53;3.60;;;;;;;;;;740020;185;669006;-73
2022/06/25 11:16:49;;;;;;;8.03;3.67;;;;;;;;;;771987;180;626351;-72
2022/06/25 11:19:14;;;;;;;5.93;3.57;;;;;;;;;;772262;180;638218;-72
2022/06/25 11:21:40;;;;;;;9.70;4.00;;;;;;;;;;770648;181;632043;-72
2022/06/25 11:24:12;;;;;;;5.60;3.50;;;;;;;;;;767150;181;644999;-73
2022/06/25 11:29:09;;;;;;;8.63;3.77;;;;;;;;;;772329;180;622402;-76
2022/06/25 11:31:35;;;;;;;4.03;3.23;;;;;;;;;;766336;181;633283;-71
2022/06/25 11:34:02;;;;;;;7.37;3.63;;;;;;;;;;766821;180;636578;-74
2022/06/25 11:36:27;;;;;;;5.37;3.90;;;;;;;;;;769963;181;629084;-75
2022/06/25 11:38:53;;;;;;;6.57;4.30;;;;;;;;;;758345;185;627171;-71
2022/06/25 11:41:20;;;;;;;5.93;3.90;;;;;;;;;;751488;185;645763;-71
2022/06/25 11:43:46;;;;;;;7.23;3.33;;;;;;;;;;746511;187;616669;-74
2022/06/25 11:46:11;;;;;;;6.50;4.10;;;;;;;;;;772906;180;625844;-73
2022/06/25 11:48:37;;;;;;;4.70;3.80;;;;;;;;;;772456;180;617882;-74
2022/06/25 11:51:03;;;;;;;5.17;3.80;;;;;;;;;;765051;181;624648;-74
2022/06/25 11:53:29;;;;;;;7.30;3.83;;;;;;;;;;774673;181;619462;-74
2022/06/25 11:56:03;;;;;;;6.90;4.20;;;;;;;;;;734915;187;1353505;-74
2022/06/25 11:58:29;;;;;;;4.50;3.40;;;;;;;;;;738475;185;633887;-73
2022/06/25 12:00:56;;;;;;;4.37;3.73;;;;;;;;;;731164;188;632342;-73
2022/06/25 12:03:23;;;;;;;4.90;3.70;;;;;;;;;;770949;180;618884;-75
2022/06/25 12:05:48;;;;;;;8.30;3.97;;;;;;;;;;775745;180;642106;-75
2022/06/25 12:08:15;;;;;;;5.73;4.10;;;;;;;;;;767542;180;627694;-75
2022/06/25 12:10:42;;;;;;;5.20;3.90;;;;;;;;;;767018;180;676607;-74
2022/06/25 12:13:06;;;;;;;4.93;3.90;;;;;;;;;;767075;181;632532;-74
2022/06/25 12:15:32;;;;;;;3.50;3.20;;;;;;;;;;766910;181;648969;-74
2022/06/25 12:18:02;;;;;;;9.43;4.57;;;;;;;;;;768962;181;614845;-74
2022/06/25 12:20:28;;;;;;;9.17;3.63;;;;;;;;;;772198;181;619199;-72
2022/06/25 12:22:54;;;;;;;4.70;3.70;;;;;;;;;;742214;185;632852;-73
2022/06/25 12:25:22;;;;;;;5.87;3.80;;;;;;;;;;768123;180;638679;-73
2022/06/25 12:27:48;;;;;;;5.03;3.60;;;;;;;;;;772350;180;638673;-69
2022/06/25 12:30:22;;;;;;;4.60;3.27;;;;;;;;;;780148;180;637111;-74
2022/06/25 12:32:48;;;;;;;7.60;3.97;;;;;;;;;;765462;180;2008047;-72
2022/06/25 12:35:16;;;;;;;8.70;4.30;;;;;;;;;;772332;181;650672;-72
2022/06/25 12:37:41;;;;;;;7.73;4.10;;;;;;;;;;769267;181;620887;-74
2022/06/25 12:40:08;;;;;;;9.67;3.90;;;;;;;;;;766992;181;640586;-74
2022/06/25 12:42:34;;;;;;;5.80;3.10;;;;;;;;;;766394;180;631356;-70
2022/06/25 12:44:59;;;;;;;7.20;3.93;;;;;;;;;;770565;181;824735;-74
2022/06/25 12:47:25;;;;;;;5.60;5.10;;;;;;;;;;770965;181;617711;-75
2022/06/25 12:49:51;;;;;;;6.40;3.23;;;;;;;;;;762849;181;637633;-76
2022/06/25 12:52:19;;;;;;;5.43;3.43;;;;;;;;;;739306;186;631898;-74
2022/06/25 12:54:48;;;;;;;6.70;3.60;;;;;;;;;;753384;186;626566;-76
2022/06/25 12:57:17;;;;;;;5.10;3.90;;;;;;;;;;737987;187;614403;-74
2022/06/25 12:59:43;;;;;;;4.50;3.00;;;;;;;;;;768920;181;629168;-74
2022/06/25 13:02:09;;;;;;;4.27;3.53;;;;;;;;;;763149;181;918688;-74
2022/06/25 13:04:35;;;;;;;6.10;3.17;;;;;;;;;;769658;180;910207;-72
2022/06/25 13:07:00;;;;;;;6.00;3.77;;;;;;;;;;763788;180;926631;-72
2022/06/25 13:09:26;;;;;;;3.60;2.97;;;;;;;;;;757088;181;1527855;-75
2022/06/25 13:11:52;;;;;;;6.67;3.30;;;;;;;;;;773237;180;689341;-74
2022/06/25 13:14:18;;;;;;;5.17;3.57;;;;;;;;;;765731;181;651674;-76
2022/06/25 13:16:45;;;;;;;4.67;3.50;;;;;;;;;;769927;181;637508;-74
2022/06/25 13:19:11;;;;;;;5.13;3.53;;;;;;;;;;761428;181;666409;-73
2022/06/25 13:21:37;;;;;;;5.20;3.50;;;;;;;;;;762515;181;615544;-75
2022/06/25 13:24:03;;;;;;;3.90;3.50;;;;;;;;;;776480;181;634871;-76
2022/06/25 13:26:29;;;;;;;6.37;3.60;;;;;;;;;;765977;180;637578;-74
2022/06/25 13:28:55;;;;;;;7.10;3.70;;;;;;;;;;769640;180;629467;-78
2022/06/25 13:31:21;;;;;;;5.60;3.40;;;;;;;;;;772595;180;630203;-74
2022/06/25 13:33:47;;;;;;;5.10;3.33;;;;;;;;;;770009;181;618743;-78
2022/06/25 13:36:13;;;;;;;4.10;3.30;;;;;;;;;;766541;180;645947;-73
2022/06/25 13:38:39;;;;;;;6.80;3.90;;;;;;;;;;765288;180;647879;-74
2022/06/25 13:41:05;;;;;;;4.77;3.00;;;;;;;;;;741314;186;653148;-76
2022/06/25 13:43:30;;;;;;;5.50;3.50;;;;;;;;;;764721;180;626907;-74
2022/06/25 13:45:56;;;;;;;4.67;3.53;;;;;;;;;;764381;180;623819;-75
2022/06/25 13:48:22;;;;;;;4.23;3.10;;;;;;;;;;735833;188;634282;-75
2022/06/25 13:50:48;;;;;;;5.20;3.47;;;;;;;;;;745066;188;643689;-73
2022/06/25 13:53:14;;;;;;;5.30;3.87;;;;;;;;;;774666;179;653435;-75
2022/06/25 13:55:40;;;;;;;8.40;5.40;;;;;;;;;;767947;180;631947;-75
2022/06/25 13:58:06;;;;;;;3.63;2.90;;;;;;;;;;766223;180;625405;-75
2022/06/25 14:00:31;;;;;;;6.40;3.70;;;;;;;;;;775744;181;678320;-75
2022/06/25 14:02:57;;;;;;;4.53;3.70;;;;;;;;;;770917;181;635811;-73
2022/06/25 14:05:23;;;;;;;5.67;3.30;;;;;;;;;;762040;181;628840;-74
2022/06/25 14:07:49;;;;;;;5.30;3.80;;;;;;;;;;771383;181;616884;-75
2022/06/25 14:10:16;;;;;;;4.47;3.80;;;;;;;;;;767826;181;624013;-78
2022/06/25 14:12:41;;;;;;;6.60;3.93;;;;;;;;;;746434;186;628551;-75
2022/06/25 14:15:07;;;;;;;3.93;3.30;;;;;;;;;;763587;181;617092;-71
2022/06/25 14:17:32;;;;;;;8.20;3.73;;;;;;;;;;740181;187;1042689;-73
2022/06/25 14:19:58;;;;;;;4.30;3.70;;;;;;;;;;769846;180;658985;-74
2022/06/25 14:22:24;;;;;;;6.03;3.70;;;;;;;;;;767318;180;641058;-73
2022/06/25 14:27:21;;;;;;;5.97;4.27;;;;;;;;;;770603;180;632047;-73
2022/06/25 14:29:47;;;;;;;5.27;3.80;;;;;;;;;;772080;180;628097;-74
2022/06/25 14:32:13;;;;;;;6.63;5.27;;;;;;;;;;768585;181;814830;-72
2022/06/25 14:34:39;;;;;;;4.70;3.60;;;;;;;;;;770859;180;620571;-72
2022/06/25 14:44:40;;;;;;;5.10;4.60;;;;;;;;;;750744;186;633881;-72
2022/06/25 14:47:06;;;;;;;5.00;4.23;;;;;;;;;;745005;186;621512;-74
2022/06/25 14:49:31;;;;;;;6.73;4.57;;;;;;;;;;768719;178;625670;-74